sensor_id;sensor_type;location;lat;lon;timestamp;temperature;humidity
5280;DHT22;2663;53.588;10.010;2023-01-16T00:01:27;6.50;99.90
5280;DHT22;2663;53.588;10.010;2023-01-16T00:03:54;6.60;99.90
5280;DHT22;2663;53.588;10.010;2023-01-16T00:06:21;6.60;99.90
5280;DHT22;2663;53.588;10.010;2023-01-16T00:08:48;6.60;99.90
5280;DHT22;2663;53.588;10.010;2023-01-16T00:11:15;6.60;99.90
5280;DHT22;2663;53.588;10.010;2023-01-16T00:13:42;6.60;99.90
5280;DHT22;2663;53.588;10.010;2023-01-16T00:16:09;6.60;99.90
5280;DHT22;2663;53.588;10.010;2023-01-16T00:18:36;6.70;99.90
5280;DHT22;2663;53.588;10.010;2023-01-16T00:21:02;6.70;99.90
5280;DHT22;2663;53.588;10.010;2023-01-16T00:23:29;6.70;99.90
5280;DHT22;2663;53.588;10.010;2023-01-16T00:25:56;6.70;99.90
5280;DHT22;2663;53.588;10.010;2023-01-16T00:28:22;6.70;99.90
5280;DHT22;2663;53.588;10.010;2023-01-16T00:30:49;6.60;99.90
5280;DHT22;2663;53.588;10.010;2023-01-16T00:33:16;6.70;99.90
5280;DHT22;2663;53.588;10.010;2023-01-16T00:35:45;6.70;99.90
5280;DHT22;2663;53.588;10.010;2023-01-16T00:38:12;6.70;99.90
5280;DHT22;2663;53.588;10.010;2023-01-16T00:40:39;6.70;99.90
5280;DHT22;2663;53.588;10.010;2023-01-16T00:43:05;6.60;99.90
5280;DHT22;2663;53.588;10.010;2023-01-16T00:45:32;7.00;99.90
5280;DHT22;2663;53.588;10.010;2023-01-16T00:47:59;6.60;99.90
5280;DHT22;2663;53.588;10.010;2023-01-16T00:50:25;6.60;99.90
5280;DHT22;2663;53.588;10.010;2023-01-16T00:52:52;6.60;99.90
5280;DHT22;2663;53.588;10.010;2023-01-16T00:55:18;6.60;99.90
5280;DHT22;2663;53.588;10.010;2023-01-16T00:57:45;6.70;99.90
5280;DHT22;2663;53.588;10.010;2023-01-16T01:00:12;6.70;99.90
5280;DHT22;2663;53.588;10.010;2023-01-16T01:02:39;6.60;99.90
5280;DHT22;2663;53.588;10.010;2023-01-16T01:05:06;6.50;99.90
5280;DHT22;2663;53.588;10.010;2023-01-16T01:07:33;6.60;99.90
5280;DHT22;2663;53.588;10.010;2023-01-16T01:09:59;6.60;99.90
5280;DHT22;2663;53.588;10.010;2023-01-16T01:12:26;6.60;99.90
5280;DHT22;2663;53.588;10.010;2023-01-16T01:14:52;6.70;99.90
5280;DHT22;2663;53.588;10.010;2023-01-16T01:17:19;6.60;99.90
5280;DHT22;2663;53.588;10.010;2023-01-16T01:19:46;6.60;99.90
5280;DHT22;2663;53.588;10.010;2023-01-16T01:22:14;6.60;99.90
5280;DHT22;2663;53.588;10.010;2023-01-16T01:24:43;6.70;99.90
5280;DHT22;2663;53.588;10.010;2023-01-16T01:27:12;6.70;99.90
5280;DHT22;2663;53.588;10.010;2023-01-16T01:29:39;6.70;99.90
5280;DHT22;2663;53.588;10.010;2023-01-16T01:32:06;6.70;99.90
5280;DHT22;2663;53.588;10.010;2023-01-16T01:34:33;6.70;99.90
5280;DHT22;2663;53.588;10.010;2023-01-16T01:37:02;6.70;99.90
5280;DHT22;2663;53.588;10.010;2023-01-16T01:39:29;6.70;99.90
5280;DHT22;2663;53.588;10.010;2023-01-16T01:41:57;6.70;99.90
5280;DHT22;2663;53.588;10.010;2023-01-16T01:44:56;6.70;99.90
5280;DHT22;2663;53.588;10.010;2023-01-16T01:47:28;6.70;99.90
5280;DHT22;2663;53.588;10.010;2023-01-16T01:49:57;6.70;99.90
5280;DHT22;2663;53.588;10.010;2023-01-16T01:52:25;6.70;99.90
5280;DHT22;2663;53.588;10.010;2023-01-16T01:55:00;6.70;99.90
5280;DHT22;2663;53.588;10.010;2023-01-16T01:57:34;6.70;99.90
5280;DHT22;2663;53.588;10.010;2023-01-16T02:00:11;6.70;99.90
5280;DHT22;2663;53.588;10.010;2023-01-16T02:02:44;6.70;99.90
5280;DHT22;2663;53.588;10.010;2023-01-16T02:05:13;6.60;99.90
5280;DHT22;2663;53.588;10.010;2023-01-16T02:07:40;6.50;99.90
5280;DHT22;2663;53.588;10.010;2023-01-16T02:10:33;6.50;99.90
5280;DHT22;2663;53.588;10.010;2023-01-16T02:13:02;6.50;99.90
5280;DHT22;2663;53.588;10.010;2023-01-16T02:15:30;6.60;99.90
5280;DHT22;2663;53.588;10.010;2023-01-16T02:17:56;6.60;99.90
5280;DHT22;2663;53.588;10.010;2023-01-16T02:20:58;6.60;99.90
5280;DHT22;2663;53.588;10.010;2023-01-16T02:23:45;6.70;99.90
5280;DHT22;2663;53.588;10.010;2023-01-16T02:29:51;6.80;99.90
5280;DHT22;2663;53.588;10.010;2023-01-16T02:35:16;6.70;99.90
5280;DHT22;2663;53.588;10.010;2023-01-16T02:37:49;7.60;99.90
5280;DHT22;2663;53.588;10.010;2023-01-16T02:43:32;6.70;99.90
5280;DHT22;2663;53.588;10.010;2023-01-16T02:46:12;6.70;99.90
5280;DHT22;2663;53.588;10.010;2023-01-16T02:53:48;6.70;99.90
5280;DHT22;2663;53.588;10.010;2023-01-16T02:56:28;6.70;99.90
5280;DHT22;2663;53.588;10.010;2023-01-16T02:58:58;6.70;99.90
5280;DHT22;2663;53.588;10.010;2023-01-16T03:01:24;6.70;99.90
5280;DHT22;2663;53.588;10.010;2023-01-16T03:06:29;6.80;99.90
5280;DHT22;2663;53.588;10.010;2023-01-16T03:09:12;6.90;99.90
5280;DHT22;2663;53.588;10.010;2023-01-16T03:12:54;7.00;99.90
5280;DHT22;2663;53.588;10.010;2023-01-16T03:18:05;7.10;99.90
5280;DHT22;2663;53.588;10.010;2023-01-16T03:20:54;7.20;99.90
5280;DHT22;2663;53.588;10.010;2023-01-16T03:23:57;7.30;99.90
5280;DHT22;2663;53.588;10.010;2023-01-16T03:26:37;7.30;99.90
5280;DHT22;2663;53.588;10.010;2023-01-16T03:29:12;7.30;99.90
5280;DHT22;2663;53.588;10.010;2023-01-16T03:31:52;6.70;99.90
5280;DHT22;2663;53.588;10.010;2023-01-16T03:34:34;7.30;99.90
5280;DHT22;2663;53.588;10.010;2023-01-16T03:37:13;7.20;99.90
5280;DHT22;2663;53.588;10.010;2023-01-16T03:39:45;7.20;99.90
5280;DHT22;2663;53.588;10.010;2023-01-16T03:42:22;7.40;99.90
5280;DHT22;2663;53.588;10.010;2023-01-16T03:44:53;7.30;99.90
5280;DHT22;2663;53.588;10.010;2023-01-16T03:47:30;7.20;99.90
5280;DHT22;2663;53.588;10.010;2023-01-16T03:50:03;7.30;99.90
5280;DHT22;2663;53.588;10.010;2023-01-16T03:52:36;7.10;99.90
5280;DHT22;2663;53.588;10.010;2023-01-16T03:55:21;7.10;99.90
5280;DHT22;2663;53.588;10.010;2023-01-16T03:57:59;7.10;99.90
5280;DHT22;2663;53.588;10.010;2023-01-16T04:00:35;7.10;99.90
5280;DHT22;2663;53.588;10.010;2023-01-16T04:03:13;7.10;99.90
5280;DHT22;2663;53.588;10.010;2023-01-16T04:06:10;7.20;99.90
5280;DHT22;2663;53.588;10.010;2023-01-16T04:08:40;7.20;99.90
5280;DHT22;2663;53.588;10.010;2023-01-16T04:11:09;7.20;99.90
5280;DHT22;2663;53.588;10.010;2023-01-16T04:13:39;7.20;99.90
5280;DHT22;2663;53.588;10.010;2023-01-16T04:16:10;7.20;99.90
5280;DHT22;2663;53.588;10.010;2023-01-16T04:18:40;7.20;99.90
5280;DHT22;2663;53.588;10.010;2023-01-16T04:21:07;7.10;99.90
5280;DHT22;2663;53.588;10.010;2023-01-16T04:23:35;7.00;99.90
5280;DHT22;2663;53.588;10.010;2023-01-16T04:26:02;6.90;99.90
5280;DHT22;2663;53.588;10.010;2023-01-16T04:28:28;7.00;99.90
5280;DHT22;2663;53.588;10.010;2023-01-16T04:30:55;7.10;99.90
5280;DHT22;2663;53.588;10.010;2023-01-16T04:33:22;7.00;99.90
5280;DHT22;2663;53.588;10.010;2023-01-16T04:35:49;7.10;99.90
5280;DHT22;2663;53.588;10.010;2023-01-16T04:38:15;7.20;99.90
5280;DHT22;2663;53.588;10.010;2023-01-16T04:40:42;7.30;99.90
5280;DHT22;2663;53.588;10.010;2023-01-16T04:43:08;7.20;99.90
5280;DHT22;2663;53.588;10.010;2023-01-16T04:45:35;7.30;99.90
5280;DHT22;2663;53.588;10.010;2023-01-16T04:48:02;7.30;99.90
5280;DHT22;2663;53.588;10.010;2023-01-16T04:50:28;7.20;99.90
5280;DHT22;2663;53.588;10.010;2023-01-16T04:52:55;7.30;99.90
5280;DHT22;2663;53.588;10.010;2023-01-16T04:55:22;7.30;99.90
5280;DHT22;2663;53.588;10.010;2023-01-16T04:57:48;7.30;99.90
5280;DHT22;2663;53.588;10.010;2023-01-16T05:00:15;7.30;99.90
5280;DHT22;2663;53.588;10.010;2023-01-16T05:02:42;7.20;99.90
5280;DHT22;2663;53.588;10.010;2023-01-16T05:05:09;7.20;99.90
5280;DHT22;2663;53.588;10.010;2023-01-16T05:07:35;7.30;99.90
5280;DHT22;2663;53.588;10.010;2023-01-16T05:10:02;7.30;99.90
5280;DHT22;2663;53.588;10.010;2023-01-16T05:12:29;7.30;99.90
5280;DHT22;2663;53.588;10.010;2023-01-16T05:14:56;7.40;99.90
5280;DHT22;2663;53.588;10.010;2023-01-16T05:17:22;7.40;99.90
5280;DHT22;2663;53.588;10.010;2023-01-16T05:19:51;7.30;99.90
5280;DHT22;2663;53.588;10.010;2023-01-16T05:22:18;7.20;99.90
5280;DHT22;2663;53.588;10.010;2023-01-16T05:24:45;7.20;99.90
5280;DHT22;2663;53.588;10.010;2023-01-16T05:27:11;7.20;99.90
5280;DHT22;2663;53.588;10.010;2023-01-16T05:29:38;7.00;99.90
5280;DHT22;2663;53.588;10.010;2023-01-16T05:32:04;7.00;99.90
5280;DHT22;2663;53.588;10.010;2023-01-16T05:34:31;7.10;99.90
5280;DHT22;2663;53.588;10.010;2023-01-16T05:36:58;7.00;99.90
5280;DHT22;2663;53.588;10.010;2023-01-16T05:39:24;7.10;99.90
5280;DHT22;2663;53.588;10.010;2023-01-16T05:41:51;7.10;99.90
5280;DHT22;2663;53.588;10.010;2023-01-16T05:44:18;7.10;99.90
5280;DHT22;2663;53.588;10.010;2023-01-16T05:46:46;7.10;99.90
5280;DHT22;2663;53.588;10.010;2023-01-16T05:49:12;6.30;99.90
5280;DHT22;2663;53.588;10.010;2023-01-16T05:51:39;7.10;99.90
5280;DHT22;2663;53.588;10.010;2023-01-16T05:54:08;7.10;99.90
5280;DHT22;2663;53.588;10.010;2023-01-16T05:56:35;7.20;99.90
5280;DHT22;2663;53.588;10.010;2023-01-16T05:59:02;7.20;99.90
5280;DHT22;2663;53.588;10.010;2023-01-16T06:01:29;7.20;99.90
5280;DHT22;2663;53.588;10.010;2023-01-16T06:03:55;7.10;99.90
5280;DHT22;2663;53.588;10.010;2023-01-16T06:06:22;7.20;99.90
5280;DHT22;2663;53.588;10.010;2023-01-16T06:08:49;6.60;99.90
5280;DHT22;2663;53.588;10.010;2023-01-16T06:11:15;7.10;99.90
5280;DHT22;2663;53.588;10.010;2023-01-16T06:13:42;7.10;99.90
5280;DHT22;2663;53.588;10.010;2023-01-16T06:16:09;7.10;99.90
5280;DHT22;2663;53.588;10.010;2023-01-16T06:18:36;7.10;99.90
5280;DHT22;2663;53.588;10.010;2023-01-16T06:21:03;7.10;99.90
5280;DHT22;2663;53.588;10.010;2023-01-16T06:23:29;7.00;99.90
5280;DHT22;2663;53.588;10.010;2023-01-16T06:25:57;7.00;99.90
5280;DHT22;2663;53.588;10.010;2023-01-16T06:28:23;7.10;99.90
5280;DHT22;2663;53.588;10.010;2023-01-16T06:30:51;7.10;99.90
5280;DHT22;2663;53.588;10.010;2023-01-16T06:33:18;7.10;99.90
5280;DHT22;2663;53.588;10.010;2023-01-16T06:35:45;7.20;99.90
5280;DHT22;2663;53.588;10.010;2023-01-16T06:38:12;7.20;99.90
5280;DHT22;2663;53.588;10.010;2023-01-16T06:40:39;7.20;99.90
5280;DHT22;2663;53.588;10.010;2023-01-16T06:43:05;7.20;99.90
5280;DHT22;2663;53.588;10.010;2023-01-16T06:45:32;7.20;99.90
5280;DHT22;2663;53.588;10.010;2023-01-16T06:47:59;7.20;99.90
5280;DHT22;2663;53.588;10.010;2023-01-16T06:50:25;7.20;99.90
5280;DHT22;2663;53.588;10.010;2023-01-16T06:52:52;7.20;99.90
5280;DHT22;2663;53.588;10.010;2023-01-16T06:55:19;7.20;99.90
5280;DHT22;2663;53.588;10.010;2023-01-16T06:57:45;7.20;99.90
5280;DHT22;2663;53.588;10.010;2023-01-16T07:00:14;7.10;99.90
5280;DHT22;2663;53.588;10.010;2023-01-16T07:02:41;7.20;99.90
5280;DHT22;2663;53.588;10.010;2023-01-16T07:05:08;7.10;99.90
5280;DHT22;2663;53.588;10.010;2023-01-16T07:07:35;7.10;99.90
5280;DHT22;2663;53.588;10.010;2023-01-16T07:10:03;7.10;99.90
5280;DHT22;2663;53.588;10.010;2023-01-16T07:12:29;7.10;99.90
5280;DHT22;2663;53.588;10.010;2023-01-16T07:14:56;7.20;99.90
5280;DHT22;2663;53.588;10.010;2023-01-16T07:17:41;7.10;99.90
5280;DHT22;2663;53.588;10.010;2023-01-16T07:20:27;6.90;99.90
5280;DHT22;2663;53.588;10.010;2023-01-16T07:23:22;7.10;99.90
5280;DHT22;2663;53.588;10.010;2023-01-16T07:25:51;8.30;99.90
5280;DHT22;2663;53.588;10.010;2023-01-16T07:28:18;7.10;99.90
5280;DHT22;2663;53.588;10.010;2023-01-16T07:30:46;7.10;99.90
5280;DHT22;2663;53.588;10.010;2023-01-16T07:33:13;8.10;99.90
5280;DHT22;2663;53.588;10.010;2023-01-16T07:35:40;7.00;99.90
5280;DHT22;2663;53.588;10.010;2023-01-16T07:38:07;7.10;99.90
5280;DHT22;2663;53.588;10.010;2023-01-16T07:40:34;7.10;99.90
5280;DHT22;2663;53.588;10.010;2023-01-16T07:43:00;7.00;99.90
5280;DHT22;2663;53.588;10.010;2023-01-16T07:45:27;7.00;99.90
5280;DHT22;2663;53.588;10.010;2023-01-16T07:47:53;6.90;99.90
5280;DHT22;2663;53.588;10.010;2023-01-16T07:50:20;6.90;99.90
5280;DHT22;2663;53.588;10.010;2023-01-16T07:52:50;6.80;99.90
5280;DHT22;2663;53.588;10.010;2023-01-16T07:55:16;6.90;99.90
5280;DHT22;2663;53.588;10.010;2023-01-16T07:57:43;6.70;99.90
5280;DHT22;2663;53.588;10.010;2023-01-16T08:00:11;6.70;99.90
5280;DHT22;2663;53.588;10.010;2023-01-16T08:02:39;6.70;99.90
5280;DHT22;2663;53.588;10.010;2023-01-16T08:05:06;6.70;99.90
5280;DHT22;2663;53.588;10.010;2023-01-16T08:07:34;6.70;99.90
5280;DHT22;2663;53.588;10.010;2023-01-16T08:10:01;6.70;99.90
5280;DHT22;2663;53.588;10.010;2023-01-16T08:12:27;6.70;99.90
5280;DHT22;2663;53.588;10.010;2023-01-16T08:14:54;6.60;99.90
5280;DHT22;2663;53.588;10.010;2023-01-16T08:17:21;6.70;99.90
5280;DHT22;2663;53.588;10.010;2023-01-16T08:19:47;6.60;99.90
5280;DHT22;2663;53.588;10.010;2023-01-16T08:22:14;7.10;99.90
5280;DHT22;2663;53.588;10.010;2023-01-16T08:24:41;8.20;99.90
5280;DHT22;2663;53.588;10.010;2023-01-16T08:27:07;9.10;99.90
5280;DHT22;2663;53.588;10.010;2023-01-16T08:29:34;9.70;99.90
5280;DHT22;2663;53.588;10.010;2023-01-16T08:32:01;10.20;99.90
5280;DHT22;2663;53.588;10.010;2023-01-16T08:34:28;10.00;99.90
5280;DHT22;2663;53.588;10.010;2023-01-16T08:36:56;9.20;99.90
5280;DHT22;2663;53.588;10.010;2023-01-16T08:39:22;8.50;99.90
5280;DHT22;2663;53.588;10.010;2023-01-16T08:41:51;7.90;99.90
5280;DHT22;2663;53.588;10.010;2023-01-16T08:44:37;7.80;99.90
5280;DHT22;2663;53.588;10.010;2023-01-16T08:47:23;7.30;99.90
5280;DHT22;2663;53.588;10.010;2023-01-16T08:52:59;7.00;99.90
5280;DHT22;2663;53.588;10.010;2023-01-16T08:55:26;7.00;99.90
5280;DHT22;2663;53.588;10.010;2023-01-16T08:57:52;6.90;99.90
5280;DHT22;2663;53.588;10.010;2023-01-16T09:00:19;6.90;99.90
5280;DHT22;2663;53.588;10.010;2023-01-16T09:02:46;6.90;99.90
5280;DHT22;2663;53.588;10.010;2023-01-16T09:05:13;6.90;99.90
5280;DHT22;2663;53.588;10.010;2023-01-16T09:07:40;7.00;99.90
5280;DHT22;2663;53.588;10.010;2023-01-16T09:10:07;7.10;99.90
5280;DHT22;2663;53.588;10.010;2023-01-16T09:12:34;7.10;99.90
5280;DHT22;2663;53.588;10.010;2023-01-16T09:15:19;7.10;99.90
5280;DHT22;2663;53.588;10.010;2023-01-16T09:17:46;7.10;99.90
5280;DHT22;2663;53.588;10.010;2023-01-16T09:20:12;7.10;99.90
5280;DHT22;2663;53.588;10.010;2023-01-16T09:22:39;7.10;99.90
5280;DHT22;2663;53.588;10.010;2023-01-16T09:25:07;7.00;99.90
5280;DHT22;2663;53.588;10.010;2023-01-16T09:27:34;7.00;99.90
5280;DHT22;2663;53.588;10.010;2023-01-16T09:30:00;7.00;99.90
5280;DHT22;2663;53.588;10.010;2023-01-16T09:32:27;7.00;99.90
5280;DHT22;2663;53.588;10.010;2023-01-16T09:34:54;7.00;99.90
5280;DHT22;2663;53.588;10.010;2023-01-16T09:37:20;6.90;99.90
5280;DHT22;2663;53.588;10.010;2023-01-16T09:39:48;6.90;99.90
5280;DHT22;2663;53.588;10.010;2023-01-16T09:45:25;6.90;99.90
5280;DHT22;2663;53.588;10.010;2023-01-16T09:47:58;6.80;99.90
5280;DHT22;2663;53.588;10.010;2023-01-16T09:50:34;6.90;99.90
5280;DHT22;2663;53.588;10.010;2023-01-16T09:53:05;6.90;99.90
5280;DHT22;2663;53.588;10.010;2023-01-16T09:55:51;6.90;99.90
5280;DHT22;2663;53.588;10.010;2023-01-16T09:58:40;7.00;99.90
5280;DHT22;2663;53.588;10.010;2023-01-16T10:01:14;7.20;99.90
5280;DHT22;2663;53.588;10.010;2023-01-16T10:03:42;7.10;99.90
5280;DHT22;2663;53.588;10.010;2023-01-16T10:06:12;7.10;99.90
5280;DHT22;2663;53.588;10.010;2023-01-16T10:11:43;7.30;99.90
5280;DHT22;2663;53.588;10.010;2023-01-16T10:14:31;7.40;99.90
5280;DHT22;2663;53.588;10.010;2023-01-16T10:25:23;7.50;99.90
5280;DHT22;2663;53.588;10.010;2023-01-16T10:28:13;7.40;99.90
5280;DHT22;2663;53.588;10.010;2023-01-16T10:30:54;7.50;99.90
5280;DHT22;2663;53.588;10.010;2023-01-16T10:33:34;7.60;99.90
5280;DHT22;2663;53.588;10.010;2023-01-16T10:36:19;7.60;99.90
5280;DHT22;2663;53.588;10.010;2023-01-16T10:38:53;7.50;99.90
5280;DHT22;2663;53.588;10.010;2023-01-16T10:41:30;7.50;99.90
5280;DHT22;2663;53.588;10.010;2023-01-16T10:44:39;7.50;99.90
5280;DHT22;2663;53.588;10.010;2023-01-16T10:47:29;7.50;99.90
5280;DHT22;2663;53.588;10.010;2023-01-16T10:50:16;7.50;99.90
5280;DHT22;2663;53.588;10.010;2023-01-16T10:53:02;7.40;99.90
5280;DHT22;2663;53.588;10.010;2023-01-16T10:55:29;7.40;99.90
5280;DHT22;2663;53.588;10.010;2023-01-16T10:57:59;7.30;99.90
5280;DHT22;2663;53.588;10.010;2023-01-16T11:00:32;7.40;99.90
5280;DHT22;2663;53.588;10.010;2023-01-16T11:03:31;7.60;99.90
5280;DHT22;2663;53.588;10.010;2023-01-16T11:06:07;7.70;99.90
5280;DHT22;2663;53.588;10.010;2023-01-16T11:08:34;7.70;99.90
5280;DHT22;2663;53.588;10.010;2023-01-16T11:11:02;7.70;99.90
5280;DHT22;2663;53.588;10.010;2023-01-16T11:13:30;7.70;99.90
5280;DHT22;2663;53.588;10.010;2023-01-16T11:16:22;7.80;99.90
5280;DHT22;2663;53.588;10.010;2023-01-16T11:19:24;7.80;99.90
5280;DHT22;2663;53.588;10.010;2023-01-16T11:21:56;7.80;99.90
5280;DHT22;2663;53.588;10.010;2023-01-16T11:24:39;7.90;99.90
5280;DHT22;2663;53.588;10.010;2023-01-16T11:27:12;7.80;99.90
5280;DHT22;2663;53.588;10.010;2023-01-16T11:29:40;7.80;99.90
5280;DHT22;2663;53.588;10.010;2023-01-16T11:32:12;7.80;99.90
5280;DHT22;2663;53.588;10.010;2023-01-16T11:34:45;7.80;99.90
5280;DHT22;2663;53.588;10.010;2023-01-16T11:37:15;7.80;99.90
5280;DHT22;2663;53.588;10.010;2023-01-16T11:39:48;7.80;99.90
5280;DHT22;2663;53.588;10.010;2023-01-16T11:42:15;7.80;99.90
5280;DHT22;2663;53.588;10.010;2023-01-16T11:45:13;7.90;99.90
5280;DHT22;2663;53.588;10.010;2023-01-16T11:48:02;7.90;99.90
5280;DHT22;2663;53.588;10.010;2023-01-16T11:50:57;7.90;99.90
5280;DHT22;2663;53.588;10.010;2023-01-16T11:53:32;8.00;99.90
5280;DHT22;2663;53.588;10.010;2023-01-16T11:58:42;8.20;99.90
5280;DHT22;2663;53.588;10.010;2023-01-16T12:01:32;8.20;99.90
5280;DHT22;2663;53.588;10.010;2023-01-16T12:04:23;8.20;99.90
5280;DHT22;2663;53.588;10.010;2023-01-16T12:07:23;8.20;99.90
5280;DHT22;2663;53.588;10.010;2023-01-16T12:09:59;8.20;99.90
5280;DHT22;2663;53.588;10.010;2023-01-16T12:12:34;8.10;99.90
5280;DHT22;2663;53.588;10.010;2023-01-16T12:21:00;8.20;99.90
5280;DHT22;2663;53.588;10.010;2023-01-16T12:27:32;8.10;99.90
5280;DHT22;2663;53.588;10.010;2023-01-16T12:32:52;8.20;99.90
5280;DHT22;2663;53.588;10.010;2023-01-16T12:35:38;8.10;99.90
5280;DHT22;2663;53.588;10.010;2023-01-16T12:38:15;8.10;99.90
5280;DHT22;2663;53.588;10.010;2023-01-16T12:43:43;8.00;99.90
5280;DHT22;2663;53.588;10.010;2023-01-16T12:46:24;8.10;99.90
5280;DHT22;2663;53.588;10.010;2023-01-16T12:49:06;8.10;99.90
5280;DHT22;2663;53.588;10.010;2023-01-16T12:54:43;8.00;99.90
5280;DHT22;2663;53.588;10.010;2023-01-16T12:59:59;8.00;99.90
5280;DHT22;2663;53.588;10.010;2023-01-16T13:02:36;8.00;99.90
5280;DHT22;2663;53.588;10.010;2023-01-16T13:05:08;7.90;99.90
5280;DHT22;2663;53.588;10.010;2023-01-16T13:08:46;8.00;99.90
5280;DHT22;2663;53.588;10.010;2023-01-16T13:10:43;8.10;99.90
5280;DHT22;2663;53.588;10.010;2023-01-16T13:13:33;7.90;99.90
5280;DHT22;2663;53.588;10.010;2023-01-16T13:16:07;7.90;99.90
5280;DHT22;2663;53.588;10.010;2023-01-16T13:18:40;8.90;99.90
5280;DHT22;2663;53.588;10.010;2023-01-16T13:21:13;7.80;99.90
5280;DHT22;2663;53.588;10.010;2023-01-16T13:23:48;7.80;99.90
5280;DHT22;2663;53.588;10.010;2023-01-16T13:26:17;7.80;99.90
5280;DHT22;2663;53.588;10.010;2023-01-16T13:29:12;7.70;99.90
5280;DHT22;2663;53.588;10.010;2023-01-16T13:31:46;7.70;99.90
5280;DHT22;2663;53.588;10.010;2023-01-16T13:34:32;7.70;99.90
5280;DHT22;2663;53.588;10.010;2023-01-16T13:40:08;7.70;99.90
5280;DHT22;2663;53.588;10.010;2023-01-16T13:43:10;7.70;99.90
5280;DHT22;2663;53.588;10.010;2023-01-16T13:45:56;7.70;99.90
5280;DHT22;2663;53.588;10.010;2023-01-16T13:48:32;7.80;99.90
5280;DHT22;2663;53.588;10.010;2023-01-16T13:51:06;7.70;99.90
5280;DHT22;2663;53.588;10.010;2023-01-16T13:53:36;7.80;99.90
5280;DHT22;2663;53.588;10.010;2023-01-16T13:56:29;7.80;99.90
5280;DHT22;2663;53.588;10.010;2023-01-16T13:59:04;7.70;99.90
5280;DHT22;2663;53.588;10.010;2023-01-16T14:01:53;7.50;99.90
5280;DHT22;2663;53.588;10.010;2023-01-16T14:06:52;7.60;99.90
5280;DHT22;2663;53.588;10.010;2023-01-16T14:18:42;7.60;99.90
5280;DHT22;2663;53.588;10.010;2023-01-16T14:21:19;7.70;99.90
5280;DHT22;2663;53.588;10.010;2023-01-16T14:23:53;7.60;99.90
5280;DHT22;2663;53.588;10.010;2023-01-16T14:29:22;7.60;99.90
5280;DHT22;2663;53.588;10.010;2023-01-16T14:34:27;7.60;99.90
5280;DHT22;2663;53.588;10.010;2023-01-16T14:37:01;7.60;99.90
5280;DHT22;2663;53.588;10.010;2023-01-16T14:39:36;7.40;99.90
5280;DHT22;2663;53.588;10.010;2023-01-16T14:42:33;7.40;99.90
5280;DHT22;2663;53.588;10.010;2023-01-16T14:45:32;7.40;99.90
5280;DHT22;2663;53.588;10.010;2023-01-16T14:57:14;7.50;99.90
5280;DHT22;2663;53.588;10.010;2023-01-16T14:59:54;7.60;99.90
5280;DHT22;2663;53.588;10.010;2023-01-16T15:02:34;7.60;99.90
5280;DHT22;2663;53.588;10.010;2023-01-16T15:05:13;7.50;99.90
5280;DHT22;2663;53.588;10.010;2023-01-16T15:10:20;7.50;99.90
5280;DHT22;2663;53.588;10.010;2023-01-16T15:12:49;7.50;99.90
5280;DHT22;2663;53.588;10.010;2023-01-16T15:15:25;7.50;99.90
5280;DHT22;2663;53.588;10.010;2023-01-16T15:17:55;7.60;99.90
5280;DHT22;2663;53.588;10.010;2023-01-16T15:20:43;7.60;99.90
5280;DHT22;2663;53.588;10.010;2023-01-16T15:23:36;7.60;99.90
5280;DHT22;2663;53.588;10.010;2023-01-16T15:29:01;7.50;99.90
5280;DHT22;2663;53.588;10.010;2023-01-16T15:31:36;7.50;99.90
5280;DHT22;2663;53.588;10.010;2023-01-16T15:36:43;7.40;99.90
5280;DHT22;2663;53.588;10.010;2023-01-16T15:41:55;7.50;99.90
5280;DHT22;2663;53.588;10.010;2023-01-16T15:44:42;7.60;99.90
5280;DHT22;2663;53.588;10.010;2023-01-16T15:47:49;7.60;99.90
5280;DHT22;2663;53.588;10.010;2023-01-16T15:50:27;7.40;99.90
5280;DHT22;2663;53.588;10.010;2023-01-16T15:52:58;7.50;99.90
5280;DHT22;2663;53.588;10.010;2023-01-16T15:55:28;7.40;99.90
5280;DHT22;2663;53.588;10.010;2023-01-16T15:57:59;7.40;99.90
5280;DHT22;2663;53.588;10.010;2023-01-16T16:00:35;7.30;99.90
5280;DHT22;2663;53.588;10.010;2023-01-16T16:03:20;7.30;99.90
5280;DHT22;2663;53.588;10.010;2023-01-16T16:05:54;7.30;99.90
5280;DHT22;2663;53.588;10.010;2023-01-16T16:08:25;7.30;99.90
5280;DHT22;2663;53.588;10.010;2023-01-16T16:10:54;7.30;99.90
5280;DHT22;2663;53.588;10.010;2023-01-16T16:13:42;7.40;99.90
5280;DHT22;2663;53.588;10.010;2023-01-16T16:16:21;7.40;99.90
5280;DHT22;2663;53.588;10.010;2023-01-16T16:19:07;7.40;99.90
5280;DHT22;2663;53.588;10.010;2023-01-16T16:21:37;7.40;99.90
5280;DHT22;2663;53.588;10.010;2023-01-16T16:24:28;7.40;99.90
5280;DHT22;2663;53.588;10.010;2023-01-16T16:26:57;7.30;99.90
5280;DHT22;2663;53.588;10.010;2023-01-16T16:29:29;7.40;99.90
5280;DHT22;2663;53.588;10.010;2023-01-16T16:32:01;7.40;99.90
5280;DHT22;2663;53.588;10.010;2023-01-16T16:34:29;7.40;99.90
5280;DHT22;2663;53.588;10.010;2023-01-16T16:36:58;7.40;99.90
5280;DHT22;2663;53.588;10.010;2023-01-16T16:42:00;7.40;99.90
5280;DHT22;2663;53.588;10.010;2023-01-16T16:47:35;7.40;99.90
5280;DHT22;2663;53.588;10.010;2023-01-16T16:50:34;7.40;99.90
5280;DHT22;2663;53.588;10.010;2023-01-16T16:53:22;7.40;99.90
5280;DHT22;2663;53.588;10.010;2023-01-16T16:56:05;7.30;99.90
5280;DHT22;2663;53.588;10.010;2023-01-16T16:58:43;7.30;99.90
5280;DHT22;2663;53.588;10.010;2023-01-16T17:01:13;7.30;99.90
5280;DHT22;2663;53.588;10.010;2023-01-16T17:03:40;7.20;99.90
5280;DHT22;2663;53.588;10.010;2023-01-16T17:06:14;7.30;99.90
5280;DHT22;2663;53.588;10.010;2023-01-16T17:08:41;7.30;99.90
5280;DHT22;2663;53.588;10.010;2023-01-16T17:11:10;7.30;99.90
5280;DHT22;2663;53.588;10.010;2023-01-16T17:13:38;7.40;99.90
5280;DHT22;2663;53.588;10.010;2023-01-16T17:16:05;7.30;99.90
5280;DHT22;2663;53.588;10.010;2023-01-16T17:18:39;7.30;99.90
5280;DHT22;2663;53.588;10.010;2023-01-16T17:21:06;7.40;99.90
5280;DHT22;2663;53.588;10.010;2023-01-16T17:23:32;7.30;99.90
5280;DHT22;2663;53.588;10.010;2023-01-16T17:25:59;7.40;99.90
5280;DHT22;2663;53.588;10.010;2023-01-16T17:28:26;7.30;99.90
5280;DHT22;2663;53.588;10.010;2023-01-16T17:30:52;7.30;99.90
5280;DHT22;2663;53.588;10.010;2023-01-16T17:33:20;7.30;99.90
5280;DHT22;2663;53.588;10.010;2023-01-16T17:35:49;7.30;99.90
5280;DHT22;2663;53.588;10.010;2023-01-16T17:38:35;7.20;99.90
5280;DHT22;2663;53.588;10.010;2023-01-16T17:41:03;7.30;99.90
5280;DHT22;2663;53.588;10.010;2023-01-16T17:43:30;7.30;99.90
5280;DHT22;2663;53.588;10.010;2023-01-16T17:46:17;7.30;99.90
5280;DHT22;2663;53.588;10.010;2023-01-16T17:48:44;7.40;99.90
5280;DHT22;2663;53.588;10.010;2023-01-16T17:51:11;7.80;99.90
5280;DHT22;2663;53.588;10.010;2023-01-16T17:53:37;8.10;99.90
5280;DHT22;2663;53.588;10.010;2023-01-16T17:56:05;8.30;99.90
5280;DHT22;2663;53.588;10.010;2023-01-16T17:58:40;8.40;99.90
5280;DHT22;2663;53.588;10.010;2023-01-16T18:01:27;8.40;99.90
5280;DHT22;2663;53.588;10.010;2023-01-16T18:04:00;8.40;99.90
5280;DHT22;2663;53.588;10.010;2023-01-16T18:06:38;8.30;99.90
5280;DHT22;2663;53.588;10.010;2023-01-16T18:09:06;7.90;99.90
5280;DHT22;2663;53.588;10.010;2023-01-16T18:11:35;7.70;99.90
5280;DHT22;2663;53.588;10.010;2023-01-16T18:14:21;7.60;99.90
5280;DHT22;2663;53.588;10.010;2023-01-16T18:17:10;7.60;99.90
5280;DHT22;2663;53.588;10.010;2023-01-16T18:19:57;6.90;99.90
5280;DHT22;2663;53.588;10.010;2023-01-16T18:22:28;7.90;99.90
5280;DHT22;2663;53.588;10.010;2023-01-16T18:24:55;7.40;99.90
5280;DHT22;2663;53.588;10.010;2023-01-16T18:27:22;7.40;99.90